createdAt,value
2023-05-25T00:00:11.732Z,8.00
2023-05-25T00:02:39.919Z,7.90
2023-05-25T00:05:09.159Z,7.80
2023-05-25T00:07:36.034Z,7.80
2023-05-25T00:10:03.132Z,7.80
2023-05-25T00:12:29.882Z,7.80
2023-05-25T00:14:56.594Z,7.80
2023-05-25T00:17:24.296Z,7.80
2023-05-25T00:19:51.575Z,7.70
2023-05-25T00:22:18.360Z,7.70
2023-05-25T00:24:45.020Z,7.60
2023-05-25T00:27:11.841Z,7.50
2023-05-25T00:29:38.501Z,7.50
2023-05-25T00:32:05.810Z,7.50
2023-05-25T00:34:32.535Z,7.40
2023-05-25T00:36:59.399Z,7.40
2023-05-25T00:39:27.973Z,7.30
2023-05-25T00:41:56.235Z,7.40
2023-05-25T00:44:22.983Z,7.40
2023-05-25T00:46:51.526Z,7.40
2023-05-25T00:49:20.829Z,7.40
2023-05-25T00:51:48.189Z,7.40
2023-05-25T00:54:19.507Z,7.50
2023-05-25T00:57:05.170Z,7.30
2023-05-25T00:59:37.040Z,7.30
2023-05-25T01:02:08.788Z,7.30
2023-05-25T01:04:45.477Z,7.20
2023-05-25T01:07:22.589Z,7.10
2023-05-25T01:09:54.542Z,7.20
2023-05-25T01:12:22.623Z,7.20
2023-05-25T01:14:50.775Z,7.20
2023-05-25T01:17:20.365Z,7.20
2023-05-25T01:19:54.805Z,7.10
2023-05-25T01:22:38.433Z,6.90
2023-05-25T01:25:14.737Z,6.80
2023-05-25T01:27:49.967Z,6.90
2023-05-25T01:30:19.363Z,6.80
2023-05-25T01:32:46.255Z,6.80
2023-05-25T01:35:14.556Z,6.90
2023-05-25T01:37:48.502Z,6.90
2023-05-25T01:40:15.726Z,6.90
2023-05-25T01:42:43.026Z,6.90
2023-05-25T01:45:11.718Z,6.70
2023-05-25T01:48:09.806Z,6.70
2023-05-25T01:50:50.910Z,6.70
2023-05-25T01:53:25.848Z,6.70
2023-05-25T01:55:57.433Z,6.80
2023-05-25T01:58:28.601Z,6.80
2023-05-25T02:00:56.475Z,7.00
2023-05-25T02:03:23.691Z,7.10
2023-05-25T02:05:50.649Z,7.20
2023-05-25T02:08:17.869Z,7.30
2023-05-25T02:10:44.629Z,7.40
2023-05-25T02:13:12.094Z,7.40
2023-05-25T02:15:38.935Z,7.30
2023-05-25T02:18:05.794Z,7.30
2023-05-25T02:20:32.752Z,7.50
2023-05-25T02:22:59.528Z,7.50
2023-05-25T02:25:26.255Z,7.50
2023-05-25T02:27:53.176Z,7.60
2023-05-25T02:30:20.707Z,7.60
2023-05-25T02:32:47.559Z,7.60
2023-05-25T02:35:14.371Z,7.70
2023-05-25T02:37:42.151Z,7.70
2023-05-25T02:40:10.748Z,7.80
2023-05-25T02:42:37.535Z,7.80
2023-05-25T02:45:06.403Z,7.90
2023-05-25T02:47:33.240Z,7.80
2023-05-25T02:50:00.089Z,7.80
2023-05-25T02:52:27.108Z,7.80
2023-05-25T02:54:53.882Z,7.80
2023-05-25T02:57:29.113Z,7.80
2023-05-25T02:59:56.909Z,7.90
2023-05-25T03:02:25.562Z,7.90
2023-05-25T03:04:53.852Z,7.90
2023-05-25T03:07:21.406Z,7.90
2023-05-25T03:09:48.621Z,8.00
2023-05-25T03:12:16.000Z,8.10
2023-05-25T03:14:42.752Z,8.10
2023-05-25T03:17:10.346Z,8.00
2023-05-25T03:19:37.206Z,8.00
2023-05-25T03:22:04.428Z,8.10
2023-05-25T03:24:32.623Z,8.10
2023-05-25T03:27:02.608Z,8.10
2023-05-25T03:29:29.302Z,8.20
2023-05-25T03:31:56.377Z,8.20
2023-05-25T03:34:26.637Z,8.20
2023-05-25T03:36:54.973Z,8.20
2023-05-25T03:39:22.420Z,8.30
2023-05-25T03:41:51.423Z,8.30
2023-05-25T03:44:18.546Z,8.40
2023-05-25T03:46:45.452Z,8.40
2023-05-25T03:49:14.035Z,8.40
2023-05-25T03:51:43.872Z,8.50
2023-05-25T03:54:12.304Z,8.50
2023-05-25T03:56:39.846Z,8.50
2023-05-25T03:59:06.712Z,8.60
2023-05-25T04:01:33.536Z,8.70
2023-05-25T04:04:02.391Z,8.70
2023-05-25T04:06:30.086Z,8.70
2023-05-25T04:08:57.993Z,8.80
2023-05-25T04:11:27.556Z,8.80
2023-05-25T04:13:54.289Z,8.80
2023-05-25T04:16:23.523Z,8.80
2023-05-25T04:18:50.455Z,8.70
2023-05-25T04:21:17.291Z,8.80
2023-05-25T04:23:44.342Z,8.90
2023-05-25T04:26:13.790Z,9.00
2023-05-25T04:28:42.401Z,8.90
2023-05-25T04:31:31.159Z,9.00
2023-05-25T04:34:15.005Z,9.00
2023-05-25T04:36:49.609Z,9.00
2023-05-25T04:39:16.728Z,9.00
2023-05-25T04:41:49.121Z,9.00
2023-05-25T04:44:15.975Z,9.10
2023-05-25T04:46:46.568Z,9.20
2023-05-25T04:49:19.822Z,9.30
2023-05-25T04:51:47.082Z,9.40
2023-05-25T04:54:14.600Z,9.40
2023-05-25T04:56:41.835Z,9.50
2023-05-25T04:59:09.344Z,9.40
2023-05-25T05:01:40.832Z,9.60
2023-05-25T05:04:08.943Z,9.60
2023-05-25T05:06:36.690Z,9.80
2023-05-25T05:09:03.908Z,9.70
2023-05-25T05:11:30.914Z,9.80
2023-05-25T05:13:59.105Z,9.80
2023-05-25T05:16:26.085Z,9.90
2023-05-25T05:18:53.573Z,9.90
2023-05-25T05:21:21.517Z,9.90
2023-05-25T05:23:50.214Z,10.00
2023-05-25T05:26:17.109Z,9.90
2023-05-25T05:28:44.002Z,10.10
2023-05-25T05:31:12.185Z,10.10
2023-05-25T05:33:39.546Z,10.10
2023-05-25T05:36:06.721Z,10.20
2023-05-25T05:38:33.573Z,10.10
2023-05-25T05:41:01.219Z,10.30
2023-05-25T05:43:28.198Z,10.20
2023-05-25T05:45:54.954Z,10.20
2023-05-25T05:48:21.688Z,10.20
2023-05-25T05:50:49.650Z,10.10
2023-05-25T05:53:16.763Z,10.10
2023-05-25T05:55:43.963Z,10.10
2023-05-25T05:58:10.923Z,10.20
2023-05-25T06:00:37.685Z,10.20
2023-05-25T06:03:06.878Z,10.30
2023-05-25T06:05:33.888Z,10.40
2023-05-25T06:08:01.164Z,10.50
2023-05-25T06:10:28.623Z,10.50
2023-05-25T06:12:55.435Z,10.50
2023-05-25T06:15:22.516Z,10.60
2023-05-25T06:17:51.718Z,10.80
2023-05-25T06:20:18.563Z,10.80
2023-05-25T06:22:47.276Z,10.90
2023-05-25T06:25:14.076Z,11.00
2023-05-25T06:27:40.991Z,11.20
2023-05-25T06:30:09.652Z,11.00
2023-05-25T06:32:37.076Z,10.80
2023-05-25T06:35:04.672Z,10.80
2023-05-25T06:37:35.228Z,10.90
2023-05-25T06:40:04.033Z,11.10
2023-05-25T06:42:31.169Z,11.00
2023-05-25T06:44:57.991Z,11.00
2023-05-25T06:47:26.205Z,11.00
2023-05-25T06:49:53.231Z,11.20
2023-05-25T06:52:20.126Z,11.20
2023-05-25T06:54:46.909Z,11.00
2023-05-25T06:57:14.479Z,11.00
2023-05-25T06:59:41.209Z,11.10
2023-05-25T07:02:08.817Z,11.30
2023-05-25T07:04:35.564Z,11.30
2023-05-25T07:07:02.335Z,11.30
2023-05-25T07:09:29.093Z,11.40
2023-05-25T07:11:55.810Z,11.20
2023-05-25T07:14:22.580Z,11.20
2023-05-25T07:16:49.273Z,11.20
2023-05-25T07:19:16.224Z,11.40
2023-05-25T07:21:43.301Z,11.50
2023-05-25T07:24:10.081Z,11.40
2023-05-25T07:26:37.007Z,11.50
2023-05-25T07:29:05.302Z,11.80
2023-05-25T07:31:32.144Z,11.80
2023-05-25T07:33:58.853Z,11.80
2023-05-25T07:36:25.592Z,11.80
2023-05-25T07:38:52.740Z,11.70
2023-05-25T07:41:19.496Z,12.00
2023-05-25T07:43:46.269Z,12.30
2023-05-25T07:46:12.980Z,12.10
2023-05-25T07:48:39.691Z,12.30
2023-05-25T07:51:06.399Z,12.50
2023-05-25T07:53:33.201Z,12.40
2023-05-25T07:55:59.989Z,12.30
2023-05-25T07:58:27.777Z,12.40
2023-05-25T08:00:54.520Z,12.40
2023-05-25T08:03:31.820Z,12.10
2023-05-25T08:06:02.822Z,12.40
2023-05-25T08:08:29.555Z,12.70
2023-05-25T08:10:56.263Z,12.90
2023-05-25T08:13:22.952Z,12.70
2023-05-25T08:15:49.777Z,12.50
2023-05-25T08:18:16.581Z,12.70
2023-05-25T08:20:43.445Z,12.90
2023-05-25T08:23:10.556Z,12.90
2023-05-25T08:25:37.300Z,12.90
2023-05-25T08:28:03.976Z,12.80
2023-05-25T08:30:30.975Z,12.70
2023-05-25T08:32:57.794Z,12.30
2023-05-25T08:35:24.687Z,12.40
2023-05-25T08:37:52.030Z,12.90
2023-05-25T08:40:26.836Z,13.20
2023-05-25T08:42:54.168Z,13.40
2023-05-25T08:45:34.335Z,13.70
2023-05-25T08:48:06.416Z,13.80
2023-05-25T08:50:35.045Z,13.80
2023-05-25T08:53:05.003Z,13.90
2023-05-25T08:55:36.780Z,13.80
2023-05-25T08:58:14.357Z,13.10
2023-05-25T09:00:47.253Z,13.20
2023-05-25T09:03:17.830Z,13.40
2023-05-25T09:05:46.025Z,13.50
2023-05-25T09:08:13.969Z,13.60
2023-05-25T09:10:42.126Z,13.80
2023-05-25T09:13:21.474Z,13.90
2023-05-25T09:15:49.944Z,13.80
2023-05-25T09:18:16.883Z,13.50
2023-05-25T09:20:46.447Z,13.50
2023-05-25T09:23:15.525Z,13.60
2023-05-25T09:25:43.782Z,13.80
2023-05-25T09:28:25.760Z,13.90
2023-05-25T09:30:53.927Z,14.10
2023-05-25T09:33:21.382Z,14.50
2023-05-25T09:35:48.793Z,14.90
2023-05-25T09:38:16.786Z,15.00
2023-05-25T09:40:44.412Z,14.70
2023-05-25T09:43:25.010Z,14.90
2023-05-25T09:45:59.718Z,15.20
2023-05-25T09:48:26.789Z,15.10
2023-05-25T09:50:53.493Z,14.90
2023-05-25T09:53:20.637Z,15.00
2023-05-25T09:55:53.963Z,14.60
2023-05-25T09:58:24.896Z,14.70
2023-05-25T10:00:54.624Z,14.80
2023-05-25T10:03:21.905Z,15.00
2023-05-25T10:05:49.355Z,14.90
2023-05-25T10:08:19.866Z,15.10
2023-05-25T10:10:49.970Z,15.10
2023-05-25T10:13:22.168Z,15.00
2023-05-25T10:15:53.091Z,14.60
2023-05-25T10:18:26.135Z,14.70
2023-05-25T10:21:03.003Z,15.30
2023-05-25T10:23:42.109Z,15.30
2023-05-25T10:26:09.942Z,15.60
2023-05-25T10:28:39.194Z,15.10
2023-05-25T10:31:07.086Z,14.60
2023-05-25T10:33:34.389Z,14.70
2023-05-25T10:36:10.571Z,14.80
2023-05-25T10:38:40.135Z,15.00
2023-05-25T10:41:09.813Z,15.30
2023-05-25T10:43:37.448Z,15.20
2023-05-25T10:46:06.269Z,15.40
2023-05-25T10:48:39.480Z,15.50
2023-05-25T10:51:11.838Z,15.60
2023-05-25T10:53:43.443Z,15.80
2023-05-25T10:56:12.073Z,16.00
2023-05-25T10:58:43.611Z,15.90
2023-05-25T11:01:13.332Z,16.00
2023-05-25T11:04:14.153Z,16.20
2023-05-25T11:06:40.948Z,16.10
2023-05-25T11:09:08.022Z,16.40
2023-05-25T11:11:43.665Z,16.90
2023-05-25T11:14:33.132Z,17.00
2023-05-25T11:17:18.335Z,17.30
2023-05-25T11:19:50.993Z,17.30
2023-05-25T11:22:37.851Z,17.60
2023-05-25T11:25:37.224Z,16.60
2023-05-25T11:28:06.105Z,16.20
2023-05-25T11:30:33.387Z,16.70
2023-05-25T11:33:04.384Z,17.40
2023-05-25T11:35:33.733Z,17.40
2023-05-25T11:38:01.188Z,16.90
2023-05-25T11:40:31.350Z,16.80
2023-05-25T11:43:00.691Z,16.80
2023-05-25T11:45:34.071Z,16.70
2023-05-25T11:48:00.890Z,16.60
2023-05-25T11:50:28.261Z,16.60
2023-05-25T11:52:55.377Z,16.40
2023-05-25T11:55:22.544Z,16.50
2023-05-25T11:57:56.709Z,16.40
2023-05-25T12:00:28.361Z,16.50
2023-05-25T12:02:56.512Z,16.60
2023-05-25T12:05:24.464Z,16.80
2023-05-25T12:07:51.433Z,16.50
2023-05-25T12:10:21.666Z,16.60
2023-05-25T12:12:51.424Z,16.50
2023-05-25T12:15:23.993Z,18.00
2023-05-25T12:17:52.447Z,18.30
2023-05-25T12:20:20.545Z,17.10
2023-05-25T12:22:47.799Z,17.20
2023-05-25T12:25:18.262Z,17.50
2023-05-25T12:27:45.647Z,17.10
2023-05-25T12:30:13.844Z,17.00
2023-05-25T12:33:04.154Z,17.30
2023-05-25T12:35:44.949Z,17.40
2023-05-25T12:38:12.998Z,18.40
2023-05-25T12:40:40.401Z,18.20
2023-05-25T12:43:07.423Z,17.80
2023-05-25T12:45:34.152Z,17.10
2023-05-25T12:48:02.320Z,17.00
2023-05-25T12:50:29.648Z,17.10
2023-05-25T12:53:04.355Z,17.40
2023-05-25T12:55:35.830Z,17.00
2023-05-25T12:58:05.471Z,17.20
2023-05-25T13:00:37.964Z,17.20
2023-05-25T13:03:07.510Z,17.20
2023-05-25T13:05:39.395Z,17.10
2023-05-25T13:08:06.197Z,17.20
2023-05-25T13:10:34.270Z,17.30
2023-05-25T13:13:01.196Z,16.80
2023-05-25T13:15:28.484Z,17.20
2023-05-25T13:17:56.455Z,17.00
2023-05-25T13:20:30.414Z,17.10
2023-05-25T13:22:58.956Z,17.20
2023-05-25T13:25:27.397Z,17.50
2023-05-25T13:27:54.986Z,18.20
2023-05-25T13:30:22.263Z,18.20
2023-05-25T13:32:51.324Z,18.10
2023-05-25T13:35:23.187Z,18.00
2023-05-25T13:37:50.978Z,17.70
2023-05-25T13:40:17.852Z,17.40
2023-05-25T13:42:48.313Z,17.30
2023-05-25T13:45:15.053Z,17.70
2023-05-25T13:47:43.994Z,18.00
2023-05-25T13:50:13.546Z,18.70
2023-05-25T13:52:40.283Z,19.10
2023-05-25T13:55:07.503Z,19.40
2023-05-25T13:57:34.293Z,21.30
2023-05-25T14:00:01.000Z,23.00
2023-05-25T14:02:29.305Z,23.10
2023-05-25T14:04:57.162Z,22.10
2023-05-25T14:07:23.897Z,22.40
2023-05-25T14:09:50.714Z,23.20
2023-05-25T14:12:17.457Z,22.70
2023-05-25T14:14:44.199Z,22.20
2023-05-25T14:17:10.989Z,21.90
2023-05-25T14:19:37.779Z,21.20
2023-05-25T14:22:13.168Z,20.90
2023-05-25T14:24:41.313Z,20.60
2023-05-25T14:27:08.081Z,19.50
2023-05-25T14:29:34.956Z,19.50
2023-05-25T14:32:02.392Z,19.50
2023-05-25T14:34:29.431Z,19.90
2023-05-25T14:36:56.809Z,20.00
2023-05-25T14:39:23.506Z,20.40
2023-05-25T14:41:50.219Z,20.80
2023-05-25T14:44:17.026Z,21.00
2023-05-25T14:46:43.855Z,21.50
2023-05-25T14:49:10.660Z,21.10
2023-05-25T14:51:37.907Z,20.30
2023-05-25T14:54:07.086Z,20.60
2023-05-25T14:56:35.077Z,21.20
2023-05-25T14:59:02.303Z,21.70
2023-05-25T15:01:31.820Z,21.60
2023-05-25T15:03:58.705Z,22.80
2023-05-25T15:06:25.521Z,23.70
2023-05-25T15:08:52.319Z,23.70
2023-05-25T15:11:19.000Z,23.30
2023-05-25T15:13:46.841Z,24.10
2023-05-25T15:16:19.778Z,24.30
2023-05-25T15:18:47.343Z,24.00
2023-05-25T15:21:16.104Z,22.90
2023-05-25T15:23:43.723Z,23.00
2023-05-25T15:26:15.046Z,23.70
2023-05-25T15:28:42.472Z,23.50
2023-05-25T15:31:09.805Z,23.60
2023-05-25T15:33:50.228Z,22.70
2023-05-25T15:36:22.519Z,22.70
2023-05-25T15:38:54.332Z,23.00
2023-05-25T15:41:23.547Z,23.30
2023-05-25T15:43:54.876Z,23.60
2023-05-25T15:46:22.784Z,23.70
2023-05-25T15:48:50.582Z,24.80
2023-05-25T15:51:20.877Z,24.70
2023-05-25T15:53:49.622Z,24.70
2023-05-25T15:56:17.726Z,23.70
2023-05-25T15:58:49.103Z,22.20
2023-05-25T16:01:19.171Z,20.90
2023-05-25T16:03:48.764Z,20.10
2023-05-25T16:06:16.245Z,19.80
2023-05-25T16:08:44.144Z,19.90
2023-05-25T16:11:13.050Z,19.70
2023-05-25T16:13:40.650Z,19.80
2023-05-25T16:16:14.470Z,20.00
2023-05-25T16:18:46.388Z,19.40
2023-05-25T16:21:14.564Z,18.70
2023-05-25T16:23:42.415Z,18.70
2023-05-25T16:26:11.535Z,18.70
2023-05-25T16:28:40.884Z,18.70
2023-05-25T16:31:11.239Z,18.30
2023-05-25T16:33:42.505Z,18.20
2023-05-25T16:36:13.525Z,17.90
2023-05-25T16:38:44.458Z,17.80
2023-05-25T16:41:16.170Z,17.70
2023-05-25T16:43:44.536Z,17.50
2023-05-25T16:46:16.878Z,17.40
2023-05-25T16:48:45.277Z,17.40
2023-05-25T16:51:15.800Z,17.60
2023-05-25T16:53:48.401Z,18.10
2023-05-25T16:56:16.165Z,18.30
2023-05-25T16:58:49.558Z,18.50
2023-05-25T17:01:16.555Z,19.20
2023-05-25T17:03:43.429Z,19.30
2023-05-25T17:06:10.478Z,19.10
2023-05-25T17:08:37.214Z,18.90
2023-05-25T17:11:03.946Z,18.60
2023-05-25T17:13:30.889Z,18.70
2023-05-25T17:15:58.132Z,18.80
2023-05-25T17:18:25.005Z,19.00
2023-05-25T17:20:51.773Z,19.40
2023-05-25T17:23:18.972Z,19.00
2023-05-25T17:25:47.142Z,19.20
2023-05-25T17:28:13.968Z,19.20
2023-05-25T17:30:40.690Z,19.50
2023-05-25T17:33:07.456Z,19.50
2023-05-25T17:35:34.171Z,18.60
2023-05-25T17:38:00.913Z,18.70
2023-05-25T17:40:27.724Z,18.40
2023-05-25T17:42:54.440Z,18.00
2023-05-25T17:45:21.343Z,17.70
2023-05-25T17:47:48.114Z,17.70
2023-05-25T17:50:15.564Z,17.50
2023-05-25T17:52:42.484Z,17.20
2023-05-25T17:55:10.532Z,17.30
2023-05-25T17:57:37.190Z,16.90
2023-05-25T18:00:04.848Z,16.80
2023-05-25T18:02:39.331Z,16.60
2023-05-25T18:05:06.544Z,16.60
2023-05-25T18:07:33.342Z,16.60
2023-05-25T18:10:00.057Z,16.40
2023-05-25T18:12:26.813Z,16.20
2023-05-25T18:14:53.514Z,16.00
2023-05-25T18:17:20.239Z,15.90
2023-05-25T18:19:47.175Z,15.70
2023-05-25T18:22:14.015Z,15.60
2023-05-25T18:24:40.778Z,15.70
2023-05-25T18:27:07.532Z,15.60
2023-05-25T18:29:34.228Z,15.50
2023-05-25T18:32:00.989Z,15.40
2023-05-25T18:34:29.036Z,15.30
2023-05-25T18:36:55.916Z,15.20
2023-05-25T18:39:22.698Z,15.10
2023-05-25T18:41:49.501Z,15.00
2023-05-25T18:44:16.295Z,14.80
2023-05-25T18:46:44.776Z,14.70
2023-05-25T18:49:13.749Z,14.60
2023-05-25T18:51:40.432Z,14.50
2023-05-25T18:54:07.175Z,14.60
2023-05-25T18:56:33.853Z,14.50
2023-05-25T18:59:00.856Z,14.40
2023-05-25T19:01:27.843Z,14.30
2023-05-25T19:03:56.791Z,14.20
2023-05-25T19:06:25.389Z,14.20
2023-05-25T19:08:52.128Z,14.10
2023-05-25T19:11:22.278Z,14.00
2023-05-25T19:13:48.974Z,13.80
2023-05-25T19:16:16.002Z,13.80
2023-05-25T19:18:42.822Z,13.60
2023-05-25T19:21:09.680Z,13.50
2023-05-25T19:23:36.389Z,13.50
2023-05-25T19:26:03.162Z,13.40
2023-05-25T19:28:29.900Z,13.30
2023-05-25T19:30:56.632Z,13.20
2023-05-25T19:33:23.406Z,13.20
2023-05-25T19:35:50.448Z,13.10
2023-05-25T19:38:17.399Z,12.90
2023-05-25T19:40:44.146Z,12.90
2023-05-25T19:43:11.487Z,12.90
2023-05-25T19:45:38.464Z,12.90
2023-05-25T19:48:05.364Z,12.70
2023-05-25T19:50:33.209Z,12.70
2023-05-25T19:53:00.626Z,12.70
2023-05-25T19:55:28.059Z,12.50
2023-05-25T19:57:55.129Z,12.50
2023-05-25T20:00:26.745Z,12.30
2023-05-25T20:02:54.252Z,12.30
2023-05-25T20:05:21.229Z,12.30
2023-05-25T20:07:48.053Z,12.20
2023-05-25T20:10:14.878Z,12.20
2023-05-25T20:12:41.652Z,12.00
2023-05-25T20:15:08.977Z,12.00
2023-05-25T20:17:35.853Z,12.00
2023-05-25T20:20:05.058Z,12.00
2023-05-25T20:22:32.995Z,11.90
2023-05-25T20:25:00.826Z,11.90
2023-05-25T20:27:27.995Z,11.80
2023-05-25T20:29:54.963Z,11.80
2023-05-25T20:32:21.959Z,11.70
2023-05-25T20:34:48.776Z,11.60
2023-05-25T20:37:15.635Z,11.50
2023-05-25T20:39:42.316Z,11.50
2023-05-25T20:42:10.257Z,11.40
2023-05-25T20:44:37.514Z,11.30
2023-05-25T20:47:04.606Z,11.30
2023-05-25T20:49:31.310Z,11.30
2023-05-25T20:51:58.093Z,11.10
2023-05-25T20:54:24.989Z,11.20
2023-05-25T20:56:51.710Z,11.20
2023-05-25T20:59:18.441Z,11.20
2023-05-25T21:01:45.300Z,11.20
2023-05-25T21:04:12.159Z,11.20
2023-05-25T21:06:38.845Z,11.10
2023-05-25T21:09:05.651Z,11.10
2023-05-25T21:11:32.422Z,11.10
2023-05-25T21:13:59.176Z,11.10
2023-05-25T21:16:26.145Z,11.00
2023-05-25T21:18:52.906Z,11.00
2023-05-25T21:21:19.620Z,11.00
2023-05-25T21:23:46.557Z,11.00
2023-05-25T21:26:13.321Z,10.90
2023-05-25T21:28:40.096Z,10.80
2023-05-25T21:31:06.868Z,10.70
2023-05-25T21:33:35.953Z,10.70
2023-05-25T21:36:03.830Z,10.70
2023-05-25T21:38:30.531Z,10.60
2023-05-25T21:40:58.655Z,10.60
2023-05-25T21:43:27.199Z,10.60
2023-05-25T21:45:54.070Z,10.60
2023-05-25T21:48:21.427Z,10.40
2023-05-25T21:50:50.421Z,10.50
2023-05-25T21:53:17.498Z,10.40
2023-05-25T21:55:45.257Z,10.30
2023-05-25T21:58:13.534Z,10.30
2023-05-25T22:00:40.392Z,10.30
2023-05-25T22:03:07.417Z,10.20
2023-05-25T22:05:34.683Z,10.10
2023-05-25T22:08:02.309Z,10.10
2023-05-25T22:10:29.116Z,10.00
2023-05-25T22:12:56.943Z,10.10
2023-05-25T22:15:24.546Z,10.10
2023-05-25T22:17:51.555Z,10.00
2023-05-25T22:20:19.228Z,9.90
2023-05-25T22:22:46.027Z,9.80
2023-05-25T22:25:12.954Z,9.80
2023-05-25T22:27:39.748Z,9.80
2023-05-25T22:30:07.111Z,9.80
2023-05-25T22:32:34.061Z,9.70
2023-05-25T22:35:01.435Z,9.70
2023-05-25T22:37:28.218Z,9.70
2023-05-25T22:39:54.977Z,9.70
2023-05-25T22:42:21.878Z,9.60
2023-05-25T22:44:51.211Z,9.60
2023-05-25T22:47:18.110Z,9.60
2023-05-25T22:49:45.077Z,9.60
2023-05-25T22:52:12.317Z,9.60
2023-05-25T22:54:39.209Z,9.50
2023-05-25T22:57:06.687Z,9.50
2023-05-25T22:59:33.469Z,9.60
2023-05-25T23:02:00.351Z,9.60
2023-05-25T23:04:27.804Z,9.50
2023-05-25T23:06:54.623Z,9.40
2023-05-25T23:09:21.371Z,9.40
2023-05-25T23:11:48.162Z,9.40
2023-05-25T23:14:15.041Z,9.40
2023-05-25T23:16:41.886Z,9.30
2023-05-25T23:19:08.750Z,9.30
2023-05-25T23:21:35.493Z,9.30
2023-05-25T23:24:02.290Z,9.30
2023-05-25T23:26:28.994Z,9.20
2023-05-25T23:28:55.804Z,9.30
2023-05-25T23:31:22.541Z,9.30
2023-05-25T23:33:49.309Z,9.20
2023-05-25T23:36:16.142Z,9.20
2023-05-25T23:38:42.817Z,9.20
2023-05-25T23:41:09.542Z,9.20
2023-05-25T23:43:36.377Z,9.10
2023-05-25T23:46:03.139Z,9.10
2023-05-25T23:48:29.846Z,9.10
2023-05-25T23:50:56.557Z,9.10
2023-05-25T23:53:23.273Z,9.20
2023-05-25T23:55:50.060Z,9.20
2023-05-25T23:58:16.778Z,9.20
